Terminal Aerodrome Forecast
Issued by NWS Cleveland, OH

Home | Current Version | Previous Version | Graphics & Text | Print | Product List | Glossary Off
Versions: 1 2 3 4 5 6 7 8 9 10 11 12 13 14 15 16 17 18

422
FTUS41 KCLE 251724
TAFMFD
TAF
KMFD 251724Z 2518/2618 26009KT P6SM VCSH SCT035 BKN100
     FM260000 26005KT P6SM SCT040 BKN200
     FM260800 32003KT 6SM BR SKC
      TEMPO 2609/2613 5SM BR
     FM261500 02007KT P6SM SCT035=

USA.gov is the U.S. government's official web portal to all federal, state and local government web resources and services.